LNE1359 SEQM-SEGU
Flight info
| Callsign | LNE1359 |
|---|---|
| Flight time | N/A |
| Altitude | 23000 |
| Route | TEMOX3B TEMOX TEMOX2 |
| Aircraft | A319/M-SDE3FGHIRWY/LB1 |
Departure
| Time | 2026-05-05 17:42 |
|---|---|
| Airport | Mariscal Sucre International Airport (SEQM) |
Arrival
| Time | N/A |
|---|---|
| Airport | José Joaquín de Olmedo International Airport (SEGU) |
| Time | Latitude | Longitude | Altitude | Speed | Heading |
|---|---|---|---|---|---|
| 2026-05-05 17:27 | -0.12614 | -78.35922 | 7848 ft | 0 kts | 269° |
| 2026-05-05 17:34 | -0.12614 | -78.35918 | 7848 ft | 3 kts | 269° |
| 2026-05-05 17:34 | -0.12613 | -78.35891 | 7848 ft | 4 kts | 266° |
| 2026-05-05 17:34 | -0.12612 | -78.35870 | 7848 ft | 3 kts | 268° |
| 2026-05-05 17:34 | -0.12610 | -78.35844 | 7848 ft | 4 kts | 253° |
| 2026-05-05 17:35 | -0.12601 | -78.35831 | 7848 ft | 3 kts | 180° |
| 2026-05-05 17:35 | -0.12587 | -78.35832 | 7837 ft | 1 kts | 176° |
| 2026-05-05 17:37 | -0.12658 | -78.35827 | 7850 ft | 12 kts | 176° |
| 2026-05-05 17:37 | -0.12697 | -78.35775 | 7852 ft | 12 kts | 85° |
| 2026-05-05 17:38 | -0.12691 | -78.35674 | 7852 ft | 17 kts | 87° |
| 2026-05-05 17:38 | -0.12708 | -78.35601 | 7853 ft | 11 kts | 151° |
| 2026-05-05 17:38 | -0.12786 | -78.35597 | 7856 ft | 12 kts | 178° |
| 2026-05-05 17:38 | -0.12873 | -78.35594 | 7859 ft | 13 kts | 177° |
| 2026-05-05 17:39 | -0.12969 | -78.35589 | 7862 ft | 14 kts | 177° |
| 2026-05-05 17:39 | -0.13071 | -78.35585 | 7866 ft | 15 kts | 178° |
| 2026-05-05 17:39 | -0.13178 | -78.35580 | 7870 ft | 16 kts | 178° |
| 2026-05-05 17:39 | -0.13292 | -78.35575 | 7874 ft | 17 kts | 177° |
| 2026-05-05 17:40 | -0.13414 | -78.35570 | 7878 ft | 18 kts | 178° |
| 2026-05-05 17:40 | -0.13535 | -78.35566 | 7882 ft | 15 kts | 178° |
| 2026-05-05 17:40 | -0.13604 | -78.35536 | 7885 ft | 11 kts | 108° |
| 2026-05-05 17:40 | -0.13549 | -78.35477 | 7883 ft | 16 kts | 29° |
| 2026-05-05 17:41 | -0.13450 | -78.35414 | 7881 ft | 13 kts | 57° |
| 2026-05-05 17:41 | -0.13386 | -78.35405 | 7879 ft | 16 kts | 358° |
| 2026-05-05 17:41 | -0.13096 | -78.35415 | 7870 ft | 74 kts | 358° |
| 2026-05-05 17:41 | -0.12332 | -78.35447 | 7838 ft | 144 kts | 358° |
| 2026-05-05 17:42 | -0.11167 | -78.35489 | 8118 ft | 174 kts | 0° |
| 2026-05-05 17:42 | -0.09947 | -78.35544 | 8905 ft | 176 kts | 1° |
| 2026-05-05 17:42 | -0.08713 | -78.35617 | 9474 ft | 180 kts | 359° |
| 2026-05-05 17:42 | -0.07452 | -78.35693 | 9954 ft | 182 kts | 0° |
| 2026-05-05 17:43 | -0.06224 | -78.35767 | 10535 ft | 174 kts | 0° |
| 2026-05-05 17:43 | -0.05060 | -78.36111 | 10958 ft | 181 kts | 327° |
| 2026-05-05 17:43 | -0.04269 | -78.37054 | 11461 ft | 179 kts | 294° |
| 2026-05-05 17:43 | -0.04043 | -78.38243 | 12003 ft | 172 kts | 267° |
| 2026-05-05 17:44 | -0.04073 | -78.39420 | 12486 ft | 167 kts | 269° |
| 2026-05-05 17:44 | -0.04095 | -78.40565 | 12899 ft | 162 kts | 268° |
| 2026-05-05 17:44 | -0.04115 | -78.41695 | 13140 ft | 165 kts | 268° |
| 2026-05-05 17:44 | -0.04134 | -78.42872 | 13306 ft | 174 kts | 267° |
| 2026-05-05 17:45 | -0.04153 | -78.44105 | 13512 ft | 179 kts | 267° |
| 2026-05-05 17:45 | -0.04171 | -78.45363 | 13812 ft | 184 kts | 267° |
| 2026-05-05 17:45 | -0.04190 | -78.46671 | 14162 ft | 191 kts | 267° |
| 2026-05-05 17:45 | -0.04208 | -78.48014 | 14585 ft | 194 kts | 268° |
| 2026-05-05 17:46 | -0.04220 | -78.48909 | 14801 ft | 196 kts | 268° |
| 2026-05-05 17:46 | -0.04240 | -78.50299 | 15092 ft | 204 kts | 268° |
| 2026-05-05 17:46 | -0.04261 | -78.51781 | 15294 ft | 222 kts | 268° |
| 2026-05-05 17:46 | -0.04284 | -78.53382 | 15477 ft | 239 kts | 269° |
| 2026-05-05 17:47 | -0.04346 | -78.55692 | 15708 ft | 264 kts | 264° |
| 2026-05-05 17:47 | -0.04520 | -78.56936 | 15835 ft | 272 kts | 257° |
| 2026-05-05 17:47 | -0.05032 | -78.58771 | 16032 ft | 275 kts | 248° |
| 2026-05-05 17:47 | -0.05848 | -78.60504 | 16643 ft | 276 kts | 239° |
| 2026-05-05 17:48 | -0.06929 | -78.62097 | 17247 ft | 279 kts | 229° |
| 2026-05-05 17:48 | -0.08247 | -78.63505 | 17869 ft | 283 kts | 223° |
| 2026-05-05 17:48 | -0.09666 | -78.64891 | 18556 ft | 286 kts | 224° |
| 2026-05-05 17:48 | -0.11095 | -78.66291 | 19145 ft | 289 kts | 224° |
| 2026-05-05 17:49 | -0.12537 | -78.67701 | 19713 ft | 295 kts | 224° |
| 2026-05-05 17:49 | -0.14014 | -78.69144 | 20220 ft | 297 kts | 223° |
| 2026-05-05 17:49 | -0.15496 | -78.70597 | 20787 ft | 299 kts | 223° |
| 2026-05-05 17:49 | -0.16989 | -78.72058 | 21346 ft | 301 kts | 223° |
| 2026-05-05 17:50 | -0.18496 | -78.73531 | 21916 ft | 304 kts | 224° |
| 2026-05-05 17:50 | -0.20007 | -78.75008 | 22473 ft | 306 kts | 223° |
| 2026-05-05 17:50 | -0.21537 | -78.76507 | 22989 ft | 309 kts | 223° |
| 2026-05-05 17:50 | -0.23087 | -78.78027 | 23444 ft | 315 kts | 224° |
| 2026-05-05 17:51 | -0.24692 | -78.79601 | 23654 ft | 330 kts | 224° |
| 2026-05-05 17:51 | -0.26339 | -78.81217 | 23897 ft | 342 kts | 224° |
| 2026-05-05 17:51 | -0.28065 | -78.82908 | 24109 ft | 354 kts | 224° |
| 2026-05-05 17:51 | -0.29862 | -78.84663 | 24164 ft | 369 kts | 224° |
| 2026-05-05 17:52 | -0.31739 | -78.86497 | 24223 ft | 382 kts | 224° |
| 2026-05-05 17:52 | -0.33649 | -78.88364 | 24225 ft | 386 kts | 224° |
| 2026-05-05 17:52 | -0.35567 | -78.90244 | 24225 ft | 387 kts | 224° |
| 2026-05-05 17:52 | -0.37488 | -78.92129 | 24226 ft | 387 kts | 224° |
| 2026-05-05 17:53 | -0.39408 | -78.94014 | 24227 ft | 387 kts | 224° |
| 2026-05-05 17:53 | -0.41328 | -78.95898 | 24225 ft | 387 kts | 224° |
| 2026-05-05 17:53 | -0.43253 | -78.97788 | 24227 ft | 388 kts | 224° |
| 2026-05-05 17:53 | -0.45183 | -78.99680 | 24188 ft | 388 kts | 224° |
| 2026-05-05 17:54 | -0.47109 | -79.01565 | 24189 ft | 388 kts | 224° |
| 2026-05-05 17:54 | -0.49040 | -79.03454 | 24190 ft | 388 kts | 224° |
| 2026-05-05 17:54 | -0.50969 | -79.05342 | 24192 ft | 388 kts | 224° |
| 2026-05-05 17:54 | -0.52898 | -79.07230 | 24197 ft | 388 kts | 224° |
| 2026-05-05 17:55 | -0.54823 | -79.09113 | 24194 ft | 387 kts | 224° |
| 2026-05-05 17:55 | -0.56744 | -79.10992 | 24195 ft | 386 kts | 224° |
| 2026-05-05 17:55 | -0.58803 | -79.12697 | 24192 ft | 385 kts | 212° |
| 2026-05-05 17:55 | -0.61154 | -79.13972 | 24145 ft | 384 kts | 203° |
| 2026-05-05 17:56 | -0.63584 | -79.15092 | 24148 ft | 384 kts | 203° |
| 2026-05-05 17:56 | -0.65974 | -79.16199 | 24149 ft | 384 kts | 203° |
| 2026-05-05 17:56 | -0.68397 | -79.17325 | 24150 ft | 384 kts | 204° |
| 2026-05-05 17:56 | -0.70817 | -79.18449 | 24146 ft | 383 kts | 204° |
| 2026-05-05 17:57 | -0.73233 | -79.19574 | 24142 ft | 383 kts | 204° |
| 2026-05-05 17:57 | -0.75632 | -79.20689 | 24103 ft | 375 kts | 203° |
| 2026-05-05 17:57 | -0.77962 | -79.21773 | 24001 ft | 365 kts | 203° |
| 2026-05-05 17:57 | -0.80229 | -79.22830 | 23890 ft | 354 kts | 203° |
| 2026-05-05 17:58 | -0.82434 | -79.23859 | 23779 ft | 345 kts | 203° |
| 2026-05-05 17:58 | -0.84604 | -79.24871 | 23443 ft | 342 kts | 203° |
| 2026-05-05 17:58 | -0.86731 | -79.25862 | 23312 ft | 333 kts | 203° |
| 2026-05-05 17:58 | -0.88801 | -79.26824 | 23185 ft | 324 kts | 203° |
| 2026-05-05 17:59 | -0.90822 | -79.27762 | 22959 ft | 318 kts | 203° |
| 2026-05-05 17:59 | -0.92821 | -79.28689 | 22614 ft | 316 kts | 203° |
| 2026-05-05 17:59 | -0.94809 | -79.29612 | 22339 ft | 313 kts | 203° |
| 2026-05-05 17:59 | -0.96782 | -79.30529 | 21828 ft | 312 kts | 203° |
| 2026-05-05 18:00 | -0.98753 | -79.31448 | 21491 ft | 312 kts | 203° |
| 2026-05-05 18:00 | -1.00721 | -79.32362 | 21223 ft | 310 kts | 203° |
| 2026-05-05 18:00 | -1.02667 | -79.33266 | 20955 ft | 308 kts | 203° |
| 2026-05-05 18:00 | -1.04603 | -79.34165 | 20703 ft | 305 kts | 203° |
| 2026-05-05 18:01 | -1.06526 | -79.35056 | 20433 ft | 304 kts | 203° |
| 2026-05-05 18:01 | -1.08439 | -79.35944 | 20155 ft | 303 kts | 203° |
| 2026-05-05 18:01 | -1.10343 | -79.36830 | 19893 ft | 301 kts | 203° |
| 2026-05-05 18:01 | -1.12237 | -79.37713 | 19576 ft | 298 kts | 204° |
| 2026-05-05 18:02 | -1.14075 | -79.38570 | 19196 ft | 293 kts | 203° |
| 2026-05-05 18:02 | -1.15941 | -79.39441 | 18775 ft | 292 kts | 203° |
| 2026-05-05 18:02 | -1.17781 | -79.40298 | 18460 ft | 292 kts | 203° |
| 2026-05-05 18:02 | -1.19623 | -79.41154 | 18112 ft | 290 kts | 203° |
| 2026-05-05 18:03 | -1.21446 | -79.42003 | 17749 ft | 287 kts | 203° |
| 2026-05-05 18:03 | -1.23218 | -79.42828 | 17337 ft | 282 kts | 203° |
| 2026-05-05 18:03 | -1.24979 | -79.43647 | 16997 ft | 277 kts | 203° |
| 2026-05-05 18:03 | -1.26721 | -79.44455 | 16589 ft | 274 kts | 203° |
| 2026-05-05 18:04 | -1.28439 | -79.45252 | 16187 ft | 271 kts | 203° |
| 2026-05-05 18:04 | -1.30137 | -79.46041 | 15790 ft | 268 kts | 202° |
| 2026-05-05 18:04 | -1.31825 | -79.46826 | 15393 ft | 267 kts | 202° |
| 2026-05-05 18:04 | -1.33499 | -79.47604 | 15165 ft | 262 kts | 202° |
| 2026-05-05 18:05 | -1.35147 | -79.48371 | 14919 ft | 260 kts | 202° |
| 2026-05-05 18:05 | -1.36795 | -79.49136 | 14473 ft | 261 kts | 202° |
| 2026-05-05 18:05 | -1.38442 | -79.49899 | 14063 ft | 260 kts | 202° |
| 2026-05-05 18:05 | -1.40076 | -79.50659 | 13660 ft | 258 kts | 202° |
| 2026-05-05 18:06 | -1.41700 | -79.51414 | 13228 ft | 256 kts | 202° |
| 2026-05-05 18:06 | -1.42766 | -79.51909 | 12946 ft | 255 kts | 202° |
| 2026-05-05 18:06 | -1.44906 | -79.52903 | 12387 ft | 252 kts | 203° |
| 2026-05-05 18:06 | -1.46491 | -79.53639 | 11965 ft | 250 kts | 203° |
| 2026-05-05 18:07 | -1.48068 | -79.54371 | 11556 ft | 248 kts | 203° |
| 2026-05-05 18:07 | -1.49606 | -79.55085 | 11154 ft | 247 kts | 203° |
| 2026-05-05 18:07 | -1.51159 | -79.55807 | 10730 ft | 245 kts | 204° |
| 2026-05-05 18:07 | -1.52699 | -79.56524 | 10363 ft | 243 kts | 203° |
| 2026-05-05 18:08 | -1.54226 | -79.57235 | 10009 ft | 241 kts | 204° |
| 2026-05-05 18:08 | -1.55738 | -79.57938 | 9591 ft | 238 kts | 204° |
| 2026-05-05 18:08 | -1.57232 | -79.58633 | 9162 ft | 237 kts | 204° |
| 2026-05-05 18:08 | -1.58717 | -79.59325 | 8739 ft | 234 kts | 204° |
| 2026-05-05 18:09 | -1.60193 | -79.60013 | 8322 ft | 233 kts | 204° |
| 2026-05-05 18:09 | -1.61654 | -79.60693 | 7905 ft | 231 kts | 204° |
| 2026-05-05 18:09 | -1.63103 | -79.61366 | 7500 ft | 229 kts | 205° |
| 2026-05-05 18:09 | -1.64540 | -79.62033 | 7103 ft | 227 kts | 205° |
| 2026-05-05 18:10 | -1.65962 | -79.62694 | 6719 ft | 224 kts | 205° |
| 2026-05-05 18:10 | -1.67359 | -79.63344 | 6377 ft | 219 kts | 205° |
| 2026-05-05 18:10 | -1.68728 | -79.63981 | 6020 ft | 216 kts | 205° |
| 2026-05-05 18:10 | -1.70093 | -79.64617 | 5716 ft | 215 kts | 205° |
| 2026-05-05 18:11 | -1.71415 | -79.65235 | 5476 ft | 210 kts | 205° |
| 2026-05-05 18:11 | -1.72730 | -79.65849 | 5234 ft | 206 kts | 205° |
| 2026-05-05 18:11 | -1.74021 | -79.66451 | 4994 ft | 203 kts | 205° |
| 2026-05-05 18:11 | -1.75293 | -79.67041 | 4754 ft | 199 kts | 205° |
| 2026-05-05 18:12 | -1.76541 | -79.67618 | 4508 ft | 196 kts | 205° |
| 2026-05-05 18:12 | -1.77769 | -79.68188 | 4257 ft | 193 kts | 205° |
| 2026-05-05 18:12 | -1.78979 | -79.68750 | 4022 ft | 190 kts | 205° |
| 2026-05-05 18:12 | -1.80171 | -79.69303 | 3879 ft | 188 kts | 205° |
| 2026-05-05 18:13 | -1.81355 | -79.69854 | 3735 ft | 187 kts | 205° |
| 2026-05-05 18:13 | -1.82532 | -79.70401 | 3626 ft | 186 kts | 205° |
| 2026-05-05 18:13 | -1.83707 | -79.70949 | 3548 ft | 186 kts | 205° |
| 2026-05-05 18:13 | -1.84877 | -79.71493 | 3510 ft | 185 kts | 205° |
| 2026-05-05 18:14 | -1.86049 | -79.72039 | 3512 ft | 186 kts | 205° |
| 2026-05-05 18:14 | -1.87220 | -79.72584 | 3501 ft | 185 kts | 205° |
| 2026-05-05 18:14 | -1.88391 | -79.73129 | 3498 ft | 186 kts | 206° |
| 2026-05-05 18:14 | -1.89569 | -79.73677 | 3502 ft | 187 kts | 206° |
| 2026-05-05 18:15 | -1.90745 | -79.74223 | 3502 ft | 187 kts | 206° |
| 2026-05-05 18:15 | -1.91925 | -79.74773 | 3500 ft | 187 kts | 206° |
| 2026-05-05 18:15 | -1.93092 | -79.75320 | 3499 ft | 188 kts | 208° |
| 2026-05-05 18:15 | -1.94228 | -79.75961 | 3502 ft | 187 kts | 211° |
| 2026-05-05 18:16 | -1.95354 | -79.76614 | 3504 ft | 187 kts | 211° |
| 2026-05-05 18:16 | -1.96479 | -79.77263 | 3489 ft | 187 kts | 211° |
| 2026-05-05 18:16 | -1.97601 | -79.77910 | 3490 ft | 186 kts | 211° |
| 2026-05-05 18:16 | -1.98722 | -79.78556 | 3435 ft | 186 kts | 211° |
| 2026-05-05 18:17 | -1.99838 | -79.79200 | 3258 ft | 185 kts | 211° |
| 2026-05-05 18:17 | -2.00949 | -79.79839 | 3039 ft | 185 kts | 211° |
| 2026-05-05 18:17 | -2.02063 | -79.80481 | 2806 ft | 185 kts | 211° |
| 2026-05-05 18:17 | -2.03175 | -79.81122 | 2573 ft | 184 kts | 211° |
| 2026-05-05 18:18 | -2.04280 | -79.81759 | 2337 ft | 183 kts | 211° |
| 2026-05-05 18:18 | -2.05371 | -79.82388 | 2133 ft | 178 kts | 211° |
| 2026-05-05 18:18 | -2.06419 | -79.82991 | 1879 ft | 169 kts | 211° |